createdAt,value
2022-09-30T00:01:59.206Z,11.20
2022-09-30T00:07:00.842Z,12.75
2022-09-30T00:12:02.486Z,12.00
2022-09-30T00:17:04.021Z,10.25
2022-09-30T00:22:05.584Z,11.13
2022-09-30T00:27:07.177Z,10.15
2022-09-30T00:32:08.688Z,9.82
2022-09-30T00:37:11.704Z,10.32
2022-09-30T00:42:15.158Z,10.70
2022-09-30T00:47:45.900Z,8.90
2022-09-30T00:53:11.516Z,9.00
2022-09-30T00:58:20.525Z,8.75
2022-09-30T01:03:23.122Z,8.73
2022-09-30T01:08:25.733Z,9.02
2022-09-30T01:13:29.147Z,10.75
2022-09-30T01:18:59.616Z,10.65
2022-09-30T01:24:25.811Z,10.40
2022-09-30T01:30:01.340Z,9.70
2022-09-30T01:35:28.015Z,9.90
2022-09-30T01:40:59.469Z,9.23
2022-09-30T01:46:10.404Z,8.73
2022-09-30T01:51:35.374Z,9.05
2022-09-30T01:56:46.475Z,8.25
2022-09-30T02:01:54.372Z,8.13
2022-09-30T02:07:00.749Z,9.88
2022-09-30T02:12:07.268Z,9.67
2022-09-30T02:17:16.859Z,9.77
2022-09-30T02:22:21.872Z,8.77
2022-09-30T02:27:29.916Z,8.98
2022-09-30T02:32:49.299Z,9.18
2022-09-30T02:37:56.105Z,9.00
2022-09-30T02:42:57.954Z,8.73
2022-09-30T02:48:35.625Z,9.20
2022-09-30T02:53:47.191Z,9.27
2022-09-30T02:58:51.475Z,9.93
2022-09-30T03:04:00.105Z,10.38
2022-09-30T03:09:02.338Z,10.35
2022-09-30T03:14:24.251Z,10.48
2022-09-30T03:19:53.669Z,10.57
2022-09-30T03:25:30.543Z,11.70
2022-09-30T03:35:48.985Z,9.50
2022-09-30T03:41:12.935Z,10.15
2022-09-30T03:46:23.469Z,9.90
2022-09-30T03:51:25.275Z,9.40
2022-09-30T03:56:29.686Z,10.60
2022-09-30T04:01:31.223Z,9.80
2022-09-30T04:06:32.768Z,11.13
2022-09-30T04:11:34.327Z,9.77
2022-09-30T04:16:35.958Z,11.25
2022-09-30T04:21:37.635Z,10.73
2022-09-30T04:26:39.253Z,10.68
2022-09-30T04:31:41.196Z,10.63
2022-09-30T04:36:43.200Z,11.45
2022-09-30T04:41:45.001Z,11.65
2022-09-30T04:46:46.654Z,11.85
2022-09-30T04:51:48.571Z,12.10
2022-09-30T04:56:50.057Z,11.73
2022-09-30T05:01:51.657Z,11.90
2022-09-30T05:06:53.355Z,11.15
2022-09-30T05:11:55.054Z,14.35
2022-09-30T05:16:56.580Z,12.35
2022-09-30T05:21:58.212Z,12.57
2022-09-30T05:26:59.870Z,16.48
2022-09-30T05:32:01.719Z,14.52
2022-09-30T05:37:03.264Z,13.23
2022-09-30T05:42:04.852Z,12.70
2022-09-30T05:47:06.558Z,12.82
2022-09-30T05:52:08.299Z,12.77
2022-09-30T05:57:10.109Z,12.23
2022-09-30T06:02:11.772Z,12.32
2022-09-30T06:07:13.909Z,11.20
2022-09-30T06:12:16.101Z,13.15
2022-09-30T06:17:18.587Z,13.10
2022-09-30T06:22:20.583Z,11.82
2022-09-30T06:27:22.332Z,11.68
2022-09-30T06:32:26.024Z,10.25
2022-09-30T06:37:27.559Z,11.48
2022-09-30T06:42:29.078Z,9.82
2022-09-30T06:47:33.196Z,9.65
2022-09-30T06:52:34.784Z,9.68
2022-09-30T06:57:36.410Z,11.10
2022-09-30T07:02:39.957Z,9.25
2022-09-30T07:07:42.282Z,9.27
2022-09-30T07:12:43.868Z,9.60
2022-09-30T07:17:51.092Z,8.30
2022-09-30T07:22:52.678Z,8.00
2022-09-30T07:27:55.831Z,8.23
2022-09-30T07:32:57.455Z,8.43
2022-09-30T07:38:00.712Z,8.65
2022-09-30T07:43:03.317Z,8.07
2022-09-30T07:48:24.829Z,9.52
2022-09-30T07:53:26.426Z,8.82
2022-09-30T07:58:27.957Z,8.57
2022-09-30T08:03:29.503Z,7.90
2022-09-30T08:08:31.070Z,9.20
2022-09-30T08:13:33.402Z,7.72
2022-09-30T08:18:35.328Z,9.77
2022-09-30T08:23:36.864Z,7.85
2022-09-30T08:28:39.472Z,8.45
2022-09-30T08:33:42.162Z,8.20
2022-09-30T08:38:44.083Z,8.35
2022-09-30T08:44:07.589Z,7.82
2022-09-30T08:49:27.851Z,7.55
2022-09-30T08:54:39.907Z,7.88
2022-09-30T08:59:48.214Z,8.13
2022-09-30T09:04:52.559Z,7.32
2022-09-30T09:09:59.907Z,6.93
2022-09-30T09:15:23.481Z,6.45
2022-09-30T09:20:33.428Z,6.82
2022-09-30T09:25:35.144Z,6.95
2022-09-30T09:30:47.539Z,6.13
2022-09-30T09:36:02.377Z,6.80
2022-09-30T09:41:32.579Z,6.53
2022-09-30T09:47:15.087Z,6.18
2022-09-30T09:52:40.201Z,5.07
2022-09-30T09:57:41.841Z,4.47
2022-09-30T10:02:43.376Z,4.15
2022-09-30T10:07:45.257Z,2.92
2022-09-30T10:12:47.939Z,2.63
2022-09-30T10:17:55.534Z,2.03
2022-09-30T10:23:20.173Z,2.22
2022-09-30T10:28:30.219Z,2.42
2022-09-30T10:33:57.387Z,2.10
2022-09-30T10:39:29.968Z,1.83
2022-09-30T10:44:31.689Z,2.00
2022-09-30T10:49:41.636Z,2.35
2022-09-30T10:54:53.994Z,2.03
2022-09-30T11:00:05.187Z,1.80
2022-09-30T11:05:21.056Z,1.70
2022-09-30T11:10:41.771Z,2.13
2022-09-30T11:16:02.830Z,1.85
2022-09-30T11:21:21.950Z,1.55
2022-09-30T11:26:43.549Z,1.67
2022-09-30T11:32:11.869Z,1.73
2022-09-30T11:37:34.930Z,1.60
2022-09-30T11:42:44.294Z,1.92
2022-09-30T11:48:04.048Z,1.50
2022-09-30T11:53:13.426Z,1.77
2022-09-30T11:58:41.591Z,1.15
2022-09-30T12:03:50.359Z,1.50
2022-09-30T12:08:59.997Z,1.50
2022-09-30T12:14:10.518Z,1.20
2022-09-30T12:19:24.596Z,1.30
2022-09-30T12:24:37.162Z,1.30
2022-09-30T12:30:05.110Z,1.23
2022-09-30T12:35:21.587Z,1.10
2022-09-30T12:40:28.934Z,1.42
2022-09-30T12:45:33.459Z,1.42
2022-09-30T12:50:52.934Z,1.20
2022-09-30T12:56:01.648Z,1.00
2022-09-30T13:01:06.352Z,1.30
2022-09-30T13:06:08.110Z,1.00
2022-09-30T13:11:39.039Z,0.80
2022-09-30T13:17:01.242Z,1.20
2022-09-30T13:22:18.073Z,0.90
2022-09-30T13:27:34.075Z,0.90
2022-09-30T13:32:39.941Z,0.88
2022-09-30T13:37:41.588Z,0.97
2022-09-30T13:42:50.195Z,0.90
2022-09-30T13:48:16.429Z,1.00
2022-09-30T13:53:30.126Z,1.10
2022-09-30T13:59:09.870Z,1.02
2022-09-30T14:04:29.574Z,0.82
2022-09-30T14:10:08.398Z,0.80
2022-09-30T14:15:25.868Z,0.80
2022-09-30T14:20:45.651Z,0.98
2022-09-30T14:26:02.966Z,1.10
2022-09-30T14:31:13.045Z,0.80
2022-09-30T14:36:18.971Z,1.90
2022-09-30T14:41:23.366Z,1.17
2022-09-30T14:46:34.727Z,0.90
2022-09-30T14:51:47.129Z,1.25
2022-09-30T14:56:50.497Z,1.10
2022-09-30T15:01:55.865Z,0.85
2022-09-30T15:07:00.346Z,1.10
2022-09-30T15:12:18.108Z,1.05
2022-09-30T15:17:27.242Z,1.15
2022-09-30T15:22:30.322Z,0.95
2022-09-30T15:27:36.933Z,0.98
2022-09-30T15:37:40.326Z,2.17
2022-09-30T15:42:53.532Z,3.00
2022-09-30T15:48:02.426Z,2.05
2022-09-30T15:53:31.346Z,2.38
2022-09-30T15:58:39.038Z,2.78
2022-09-30T16:03:57.352Z,2.70
2022-09-30T16:09:26.306Z,2.70
2022-09-30T16:14:31.854Z,2.03
2022-09-30T16:19:34.577Z,1.83
2022-09-30T16:24:36.338Z,1.60
2022-09-30T16:29:38.060Z,1.90
2022-09-30T16:34:40.455Z,1.58
2022-09-30T16:39:42.180Z,1.77
2022-09-30T16:44:45.371Z,5.00
2022-09-30T16:49:47.723Z,3.05
2022-09-30T16:54:49.413Z,3.15
2022-09-30T16:59:51.555Z,3.70
2022-09-30T17:04:53.345Z,6.05
2022-09-30T17:09:55.014Z,9.90
2022-09-30T17:14:57.107Z,8.70
2022-09-30T17:19:59.142Z,8.63
2022-09-30T17:25:01.070Z,6.28
2022-09-30T17:30:04.151Z,5.90
2022-09-30T17:35:08.475Z,6.03
2022-09-30T17:40:29.189Z,6.07
2022-09-30T17:45:30.830Z,6.07
2022-09-30T17:50:32.535Z,6.15
2022-09-30T17:55:35.069Z,6.82
2022-09-30T18:00:37.672Z,6.20
2022-09-30T18:05:39.290Z,7.53
2022-09-30T18:10:40.896Z,9.00
2022-09-30T18:15:42.443Z,10.25
2022-09-30T18:20:45.963Z,9.85
2022-09-30T18:25:49.669Z,10.93
2022-09-30T18:30:51.356Z,9.63
2022-09-30T18:35:52.915Z,8.95
2022-09-30T18:40:54.554Z,8.50
2022-09-30T18:45:57.597Z,7.22
2022-09-30T18:51:03.544Z,7.78
2022-09-30T18:56:05.597Z,7.87
2022-09-30T19:01:07.801Z,8.63
2022-09-30T19:06:09.777Z,11.80
2022-09-30T19:11:16.241Z,12.75
2022-09-30T19:16:22.253Z,10.82
2022-09-30T19:21:23.867Z,11.50
2022-09-30T19:26:29.220Z,10.98
2022-09-30T19:31:32.633Z,10.02
2022-09-30T19:36:44.635Z,9.25
2022-09-30T19:41:50.816Z,9.55
2022-09-30T19:46:52.402Z,9.50
2022-09-30T19:51:53.946Z,8.68
2022-09-30T19:56:55.597Z,8.43
2022-09-30T20:01:57.215Z,7.35
2022-09-30T20:06:59.331Z,6.95
2022-09-30T20:12:01.139Z,6.68
2022-09-30T20:17:02.692Z,6.80
2022-09-30T20:22:05.321Z,6.97
2022-09-30T20:27:06.820Z,7.25
2022-09-30T20:32:08.382Z,7.35
2022-09-30T20:37:10.032Z,6.00
2022-09-30T20:42:11.611Z,5.13
2022-09-30T20:47:13.215Z,4.40
2022-09-30T20:52:15.172Z,4.10
2022-09-30T20:57:16.708Z,3.70
2022-09-30T21:02:18.279Z,3.60
2022-09-30T21:07:21.110Z,3.42
2022-09-30T21:12:22.909Z,2.75
2022-09-30T21:17:24.531Z,2.58
2022-09-30T21:22:26.151Z,2.50
2022-09-30T21:27:27.727Z,2.80
2022-09-30T21:32:29.354Z,2.30
2022-09-30T21:37:31.048Z,2.60
2022-09-30T21:42:32.823Z,2.70
2022-09-30T21:47:34.355Z,3.00
2022-09-30T21:52:38.284Z,4.57
2022-09-30T21:57:40.119Z,4.60
2022-09-30T22:02:41.945Z,5.13
2022-09-30T22:07:43.643Z,5.75
2022-09-30T22:12:46.353Z,6.07
2022-09-30T22:17:49.816Z,6.55
2022-09-30T22:22:51.335Z,6.03
2022-09-30T22:27:52.882Z,6.20
2022-09-30T22:33:14.446Z,6.32
2022-09-30T22:38:16.047Z,6.88
2022-09-30T22:43:17.626Z,6.63
2022-09-30T22:48:19.285Z,9.73
2022-09-30T22:53:20.815Z,8.13
2022-09-30T22:58:26.719Z,9.27
2022-09-30T23:03:28.497Z,11.05
2022-09-30T23:08:41.223Z,11.70
2022-09-30T23:13:43.845Z,10.02
2022-09-30T23:18:46.372Z,8.07
2022-09-30T23:23:48.455Z,8.18
2022-09-30T23:28:49.987Z,7.90
2022-09-30T23:33:54.154Z,7.40
2022-09-30T23:39:01.073Z,11.40
2022-09-30T23:44:02.962Z,8.48
2022-09-30T23:49:04.864Z,7.15
2022-09-30T23:54:06.441Z,7.07
2022-09-30T23:59:08.092Z,6.95
